sensor_id;sensor_type;location;lat;lon;timestamp;temperature;humidity
49503;DHT22;35409;48.776;9.204;2023-11-19T09:21:54;14.00;99.90
49503;DHT22;35409;48.776;9.204;2023-11-19T09:24:20;14.10;99.90
49503;DHT22;35409;48.776;9.204;2023-11-19T09:26:45;14.20;99.90
49503;DHT22;35409;48.776;9.204;2023-11-19T09:29:11;14.20;99.90
49503;DHT22;35409;48.776;9.204;2023-11-19T09:31:40;14.30;99.90
49503;DHT22;35409;48.776;9.204;2023-11-19T09:34:05;14.30;99.90
49503;DHT22;35409;48.776;9.204;2023-11-19T09:36:31;14.40;99.90
49503;DHT22;35409;48.776;9.204;2023-11-19T09:38:57;14.40;99.90
49503;DHT22;35409;48.776;9.204;2023-11-19T09:41:23;14.50;99.90
49503;DHT22;35409;48.776;9.204;2023-11-19T09:43:50;14.60;99.90
49503;DHT22;35409;48.776;9.204;2023-11-19T09:46:16;14.70;99.90
49503;DHT22;35409;48.776;9.204;2023-11-19T09:48:42;14.70;99.90
49503;DHT22;35409;48.776;9.204;2023-11-19T09:51:10;14.70;99.90
49503;DHT22;35409;48.776;9.204;2023-11-19T09:53:37;14.70;99.90
49503;DHT22;35409;48.776;9.204;2023-11-19T09:56:03;14.70;99.90
49503;DHT22;35409;48.776;9.204;2023-11-19T09:58:30;14.80;99.90
49503;DHT22;35409;48.776;9.204;2023-11-19T10:00:57;14.90;99.90
49503;DHT22;35409;48.776;9.204;2023-11-19T10:03:27;14.90;99.90
49503;DHT22;35409;48.776;9.204;2023-11-19T10:05:57;14.90;99.90
49503;DHT22;35409;48.776;9.204;2023-11-19T10:08:23;15.00;99.90
49503;DHT22;35409;48.776;9.204;2023-11-19T10:10:49;15.20;99.90
49503;DHT22;35409;48.776;9.204;2023-11-19T10:23:03;15.70;99.90
49503;DHT22;35409;48.776;9.204;2023-11-19T10:25:29;15.70;99.90
49503;DHT22;35409;48.776;9.204;2023-11-19T10:27:56;15.80;99.90
49503;DHT22;35409;48.776;9.204;2023-11-19T10:30:29;15.90;99.90
49503;DHT22;35409;48.776;9.204;2023-11-19T10:33:05;15.80;99.90
49503;DHT22;35409;48.776;9.204;2023-11-19T10:35:36;15.80;99.90
49503;DHT22;35409;48.776;9.204;2023-11-19T10:38:14;15.70;99.90
49503;DHT22;35409;48.776;9.204;2023-11-19T10:40:42;15.70;99.90
49503;DHT22;35409;48.776;9.204;2023-11-19T10:43:08;15.70;99.90
49503;DHT22;35409;48.776;9.204;2023-11-19T10:45:37;15.70;99.90
49503;DHT22;35409;48.776;9.204;2023-11-19T10:48:04;15.80;99.90
49503;DHT22;35409;48.776;9.204;2023-11-19T10:50:37;15.80;99.90
49503;DHT22;35409;48.776;9.204;2023-11-19T10:53:03;15.80;99.90
49503;DHT22;35409;48.776;9.204;2023-11-19T10:55:31;15.80;99.90
49503;DHT22;35409;48.776;9.204;2023-11-19T10:58:07;15.80;99.90
49503;DHT22;35409;48.776;9.204;2023-11-19T11:00:55;16.00;99.90
49503;DHT22;35409;48.776;9.204;2023-11-19T11:03:25;16.00;99.90
49503;DHT22;35409;48.776;9.204;2023-11-19T11:05:53;16.10;99.90
49503;DHT22;35409;48.776;9.204;2023-11-19T11:08:20;16.30;99.90
49503;DHT22;35409;48.776;9.204;2023-11-19T11:10:55;16.40;99.90
49503;DHT22;35409;48.776;9.204;2023-11-19T11:13:23;16.40;99.90
49503;DHT22;35409;48.776;9.204;2023-11-19T11:15:50;16.40;99.90
49503;DHT22;35409;48.776;9.204;2023-11-19T11:18:17;16.50;99.90
49503;DHT22;35409;48.776;9.204;2023-11-19T11:20:45;16.40;99.90
49503;DHT22;35409;48.776;9.204;2023-11-19T11:37:32;16.20;99.90
49503;DHT22;35409;48.776;9.204;2023-11-19T11:39:59;16.10;99.90
49503;DHT22;35409;48.776;9.204;2023-11-19T11:45:02;16.00;99.90
49503;DHT22;35409;48.776;9.204;2023-11-19T11:50:14;15.60;99.90
49503;DHT22;35409;48.776;9.204;2023-11-19T11:58:17;15.70;99.90
49503;DHT22;35409;48.776;9.204;2023-11-19T12:00:43;15.90;99.90
49503;DHT22;35409;48.776;9.204;2023-11-19T12:03:09;16.00;99.90
49503;DHT22;35409;48.776;9.204;2023-11-19T12:05:44;16.10;99.90
49503;DHT22;35409;48.776;9.204;2023-11-19T12:08:11;16.20;99.90
49503;DHT22;35409;48.776;9.204;2023-11-19T12:10:47;16.20;99.90
49503;DHT22;35409;48.776;9.204;2023-11-19T12:13:14;16.30;99.90
49503;DHT22;35409;48.776;9.204;2023-11-19T12:18:31;16.60;99.90
49503;DHT22;35409;48.776;9.204;2023-11-19T12:20:58;16.90;99.90
49503;DHT22;35409;48.776;9.204;2023-11-19T12:23:30;17.10;99.90
49503;DHT22;35409;48.776;9.204;2023-11-19T12:28:23;17.20;99.90
49503;DHT22;35409;48.776;9.204;2023-11-19T12:30:52;17.10;99.90
49503;DHT22;35409;48.776;9.204;2023-11-19T12:33:19;17.10;99.90
49503;DHT22;35409;48.776;9.204;2023-11-19T12:35:46;17.10;99.90
49503;DHT22;35409;48.776;9.204;2023-11-19T12:38:25;16.90;99.90
49503;DHT22;35409;48.776;9.204;2023-11-19T12:41:07;16.90;99.90
49503;DHT22;35409;48.776;9.204;2023-11-19T12:43:33;16.70;99.90
49503;DHT22;35409;48.776;9.204;2023-11-19T12:46:21;16.60;99.90
49503;DHT22;35409;48.776;9.204;2023-11-19T12:48:50;16.50;99.90
49503;DHT22;35409;48.776;9.204;2023-11-19T12:51:16;16.30;99.90
49503;DHT22;35409;48.776;9.204;2023-11-19T12:53:50;16.20;99.90
49503;DHT22;35409;48.776;9.204;2023-11-19T12:56:16;16.20;99.90
49503;DHT22;35409;48.776;9.204;2023-11-19T12:58:41;16.10;99.90
49503;DHT22;35409;48.776;9.204;2023-11-19T13:01:09;16.10;99.90
49503;DHT22;35409;48.776;9.204;2023-11-19T13:03:38;16.10;99.90
49503;DHT22;35409;48.776;9.204;2023-11-19T13:06:10;16.20;99.90
49503;DHT22;35409;48.776;9.204;2023-11-19T13:08:47;16.20;99.90
49503;DHT22;35409;48.776;9.204;2023-11-19T13:11:32;16.20;99.90
49503;DHT22;35409;48.776;9.204;2023-11-19T13:14:00;16.20;99.90
49503;DHT22;35409;48.776;9.204;2023-11-19T13:16:27;16.20;99.90
49503;DHT22;35409;48.776;9.204;2023-11-19T13:18:53;16.20;99.90
49503;DHT22;35409;48.776;9.204;2023-11-19T13:21:19;16.20;99.90
49503;DHT22;35409;48.776;9.204;2023-11-19T13:23:44;16.30;99.90
49503;DHT22;35409;48.776;9.204;2023-11-19T13:26:10;16.30;99.90
49503;DHT22;35409;48.776;9.204;2023-11-19T13:28:37;16.30;99.90
49503;DHT22;35409;48.776;9.204;2023-11-19T13:31:02;16.30;99.90
49503;DHT22;35409;48.776;9.204;2023-11-19T13:33:28;16.30;99.90
49503;DHT22;35409;48.776;9.204;2023-11-19T13:35:55;16.20;99.90
49503;DHT22;35409;48.776;9.204;2023-11-19T13:38:20;16.20;99.90
49503;DHT22;35409;48.776;9.204;2023-11-19T13:40:46;16.10;99.90
49503;DHT22;35409;48.776;9.204;2023-11-19T13:43:12;16.00;99.90
49503;DHT22;35409;48.776;9.204;2023-11-19T13:45:37;15.90;99.90
49503;DHT22;35409;48.776;9.204;2023-11-19T13:48:03;15.90;99.90
49503;DHT22;35409;48.776;9.204;2023-11-19T13:50:29;15.80;99.90
49503;DHT22;35409;48.776;9.204;2023-11-19T13:52:54;15.70;99.90
49503;DHT22;35409;48.776;9.204;2023-11-19T13:55:20;15.60;99.90
49503;DHT22;35409;48.776;9.204;2023-11-19T13:57:47;15.50;99.90
49503;DHT22;35409;48.776;9.204;2023-11-19T14:00:14;15.40;99.90
49503;DHT22;35409;48.776;9.204;2023-11-19T14:02:45;15.30;99.90
49503;DHT22;35409;48.776;9.204;2023-11-19T14:05:11;15.30;99.90
49503;DHT22;35409;48.776;9.204;2023-11-19T14:07:38;15.30;99.90
49503;DHT22;35409;48.776;9.204;2023-11-19T14:10:04;15.20;99.90
49503;DHT22;35409;48.776;9.204;2023-11-19T14:12:31;15.10;99.90
49503;DHT22;35409;48.776;9.204;2023-11-19T14:14:58;15.00;99.90
49503;DHT22;35409;48.776;9.204;2023-11-19T14:17:24;15.00;99.90
49503;DHT22;35409;48.776;9.204;2023-11-19T14:19:50;14.90;99.90
49503;DHT22;35409;48.776;9.204;2023-11-19T14:22:16;14.80;99.90
49503;DHT22;35409;48.776;9.204;2023-11-19T14:24:42;14.70;99.90
49503;DHT22;35409;48.776;9.204;2023-11-19T14:27:08;14.60;99.90
49503;DHT22;35409;48.776;9.204;2023-11-19T14:29:35;14.60;99.90
49503;DHT22;35409;48.776;9.204;2023-11-19T14:32:01;14.50;99.90
49503;DHT22;35409;48.776;9.204;2023-11-19T14:34:30;14.40;99.90
49503;DHT22;35409;48.776;9.204;2023-11-19T14:36:57;14.40;99.90
49503;DHT22;35409;48.776;9.204;2023-11-19T14:39:24;14.40;99.90
49503;DHT22;35409;48.776;9.204;2023-11-19T14:41:50;14.30;99.90
49503;DHT22;35409;48.776;9.204;2023-11-19T14:44:16;14.30;99.90
49503;DHT22;35409;48.776;9.204;2023-11-19T14:46:42;14.30;99.90
49503;DHT22;35409;48.776;9.204;2023-11-19T14:49:08;14.30;99.90
49503;DHT22;35409;48.776;9.204;2023-11-19T14:51:39;14.20;99.90
49503;DHT22;35409;48.776;9.204;2023-11-19T14:54:05;14.10;99.90
49503;DHT22;35409;48.776;9.204;2023-11-19T14:56:31;14.00;99.90
49503;DHT22;35409;48.776;9.204;2023-11-19T14:58:57;13.90;99.90
49503;DHT22;35409;48.776;9.204;2023-11-19T15:01:24;13.90;99.90
49503;DHT22;35409;48.776;9.204;2023-11-19T15:03:50;13.80;99.90
49503;DHT22;35409;48.776;9.204;2023-11-19T15:06:15;13.70;99.90
49503;DHT22;35409;48.776;9.204;2023-11-19T15:08:41;13.70;99.90
49503;DHT22;35409;48.776;9.204;2023-11-19T15:11:08;13.70;99.90
49503;DHT22;35409;48.776;9.204;2023-11-19T15:13:35;13.60;99.90
49503;DHT22;35409;48.776;9.204;2023-11-19T15:16:03;13.70;99.90
49503;DHT22;35409;48.776;9.204;2023-11-19T15:18:31;13.70;99.90
49503;DHT22;35409;48.776;9.204;2023-11-19T15:20:57;13.60;99.90
49503;DHT22;35409;48.776;9.204;2023-11-19T15:23:23;13.60;99.90
49503;DHT22;35409;48.776;9.204;2023-11-19T15:25:48;13.50;99.90
49503;DHT22;35409;48.776;9.204;2023-11-19T15:28:14;13.40;99.90
49503;DHT22;35409;48.776;9.204;2023-11-19T15:30:40;13.30;99.90
49503;DHT22;35409;48.776;9.204;2023-11-19T15:33:06;13.20;99.90
49503;DHT22;35409;48.776;9.204;2023-11-19T15:35:34;13.20;99.90
49503;DHT22;35409;48.776;9.204;2023-11-19T15:38:00;13.30;99.90
49503;DHT22;35409;48.776;9.204;2023-11-19T15:40:25;13.30;99.90
49503;DHT22;35409;48.776;9.204;2023-11-19T15:42:52;13.30;99.90
49503;DHT22;35409;48.776;9.204;2023-11-19T15:45:20;13.30;99.90
49503;DHT22;35409;48.776;9.204;2023-11-19T15:47:45;13.20;99.90
49503;DHT22;35409;48.776;9.204;2023-11-19T15:50:11;13.20;99.90
49503;DHT22;35409;48.776;9.204;2023-11-19T15:52:37;13.10;99.90
49503;DHT22;35409;48.776;9.204;2023-11-19T15:55:03;13.10;99.90
49503;DHT22;35409;48.776;9.204;2023-11-19T15:57:29;13.00;99.90
49503;DHT22;35409;48.776;9.204;2023-11-19T15:59:55;12.90;99.90
49503;DHT22;35409;48.776;9.204;2023-11-19T16:02:20;12.90;99.90
49503;DHT22;35409;48.776;9.204;2023-11-19T16:04:46;12.90;99.90
49503;DHT22;35409;48.776;9.204;2023-11-19T16:07:16;12.90;99.90
49503;DHT22;35409;48.776;9.204;2023-11-19T16:09:41;12.80;99.90
49503;DHT22;35409;48.776;9.204;2023-11-19T16:12:08;12.80;99.90
49503;DHT22;35409;48.776;9.204;2023-11-19T16:14:34;12.70;99.90
49503;DHT22;35409;48.776;9.204;2023-11-19T16:17:00;12.60;99.90
49503;DHT22;35409;48.776;9.204;2023-11-19T16:19:25;12.60;99.90
49503;DHT22;35409;48.776;9.204;2023-11-19T16:21:52;12.70;99.90
49503;DHT22;35409;48.776;9.204;2023-11-19T16:24:18;12.60;99.90
49503;DHT22;35409;48.776;9.204;2023-11-19T16:26:44;12.60;99.90
49503;DHT22;35409;48.776;9.204;2023-11-19T16:29:10;12.60;99.90
49503;DHT22;35409;48.776;9.204;2023-11-19T16:31:35;12.60;99.90
49503;DHT22;35409;48.776;9.204;2023-11-19T16:34:01;12.40;99.90
49503;DHT22;35409;48.776;9.204;2023-11-19T16:36:27;12.40;99.90
49503;DHT22;35409;48.776;9.204;2023-11-19T16:38:52;12.30;99.90
49503;DHT22;35409;48.776;9.204;2023-11-19T16:41:18;12.20;99.90
49503;DHT22;35409;48.776;9.204;2023-11-19T16:43:48;12.10;99.90
49503;DHT22;35409;48.776;9.204;2023-11-19T16:46:14;12.00;99.90
49503;DHT22;35409;48.776;9.204;2023-11-19T16:48:40;11.90;99.90
49503;DHT22;35409;48.776;9.204;2023-11-19T16:51:12;11.80;99.90
49503;DHT22;35409;48.776;9.204;2023-11-19T16:53:48;11.70;99.90
49503;DHT22;35409;48.776;9.204;2023-11-19T16:56:15;11.70;99.90
49503;DHT22;35409;48.776;9.204;2023-11-19T16:58:41;11.70;99.90
49503;DHT22;35409;48.776;9.204;2023-11-19T17:01:10;11.70;99.90
49503;DHT22;35409;48.776;9.204;2023-11-19T17:03:38;11.70;99.90
49503;DHT22;35409;48.776;9.204;2023-11-19T17:06:04;11.70;99.90
49503;DHT22;35409;48.776;9.204;2023-11-19T17:08:30;11.70;99.90
49503;DHT22;35409;48.776;9.204;2023-11-19T17:11:02;11.60;99.90
49503;DHT22;35409;48.776;9.204;2023-11-19T17:13:29;11.50;99.90
49503;DHT22;35409;48.776;9.204;2023-11-19T17:15:55;11.50;99.90
49503;DHT22;35409;48.776;9.204;2023-11-19T17:18:21;11.40;99.90
49503;DHT22;35409;48.776;9.204;2023-11-19T17:20:47;11.40;99.90
49503;DHT22;35409;48.776;9.204;2023-11-19T17:23:12;11.30;99.90
49503;DHT22;35409;48.776;9.204;2023-11-19T17:25:38;11.30;99.90
49503;DHT22;35409;48.776;9.204;2023-11-19T17:28:04;11.30;99.90
49503;DHT22;35409;48.776;9.204;2023-11-19T17:30:36;11.30;99.90
49503;DHT22;35409;48.776;9.204;2023-11-19T17:33:02;11.30;99.90
49503;DHT22;35409;48.776;9.204;2023-11-19T17:35:31;11.30;99.90
49503;DHT22;35409;48.776;9.204;2023-11-19T17:37:57;11.20;99.90
49503;DHT22;35409;48.776;9.204;2023-11-19T17:40:22;11.20;99.90
49503;DHT22;35409;48.776;9.204;2023-11-19T17:42:49;11.20;99.90
49503;DHT22;35409;48.776;9.204;2023-11-19T17:45:15;11.30;99.90
49503;DHT22;35409;48.776;9.204;2023-11-19T17:47:41;11.30;99.90
49503;DHT22;35409;48.776;9.204;2023-11-19T17:50:06;11.30;99.90
49503;DHT22;35409;48.776;9.204;2023-11-19T17:52:34;11.30;99.90
49503;DHT22;35409;48.776;9.204;2023-11-19T17:55:00;11.40;99.90
49503;DHT22;35409;48.776;9.204;2023-11-19T17:57:28;11.30;99.90
49503;DHT22;35409;48.776;9.204;2023-11-19T17:59:54;11.40;99.90
49503;DHT22;35409;48.776;9.204;2023-11-19T18:02:19;11.40;99.90
49503;DHT22;35409;48.776;9.204;2023-11-19T18:04:46;11.50;99.90
49503;DHT22;35409;48.776;9.204;2023-11-19T18:07:15;11.60;99.90
49503;DHT22;35409;48.776;9.204;2023-11-19T18:09:42;11.60;99.90
49503;DHT22;35409;48.776;9.204;2023-11-19T18:12:11;11.70;99.90
49503;DHT22;35409;48.776;9.204;2023-11-19T18:14:40;11.70;99.90
49503;DHT22;35409;48.776;9.204;2023-11-19T18:17:06;11.70;99.90
49503;DHT22;35409;48.776;9.204;2023-11-19T18:19:32;11.60;99.90
49503;DHT22;35409;48.776;9.204;2023-11-19T18:21:58;11.60;99.90
49503;DHT22;35409;48.776;9.204;2023-11-19T18:24:25;11.60;99.90
49503;DHT22;35409;48.776;9.204;2023-11-19T18:26:51;11.70;99.90
49503;DHT22;35409;48.776;9.204;2023-11-19T18:29:17;11.70;99.90
49503;DHT22;35409;48.776;9.204;2023-11-19T18:31:43;11.70;99.90
49503;DHT22;35409;48.776;9.204;2023-11-19T18:34:09;11.70;99.90
49503;DHT22;35409;48.776;9.204;2023-11-19T18:36:35;11.70;99.90
49503;DHT22;35409;48.776;9.204;2023-11-19T18:39:04;11.70;99.90
49503;DHT22;35409;48.776;9.204;2023-11-19T18:41:30;11.60;99.90
49503;DHT22;35409;48.776;9.204;2023-11-19T18:43:56;11.60;99.90
49503;DHT22;35409;48.776;9.204;2023-11-19T18:46:22;11.50;99.90
49503;DHT22;35409;48.776;9.204;2023-11-19T18:48:47;11.50;99.90
49503;DHT22;35409;48.776;9.204;2023-11-19T18:51:13;11.50;99.90
49503;DHT22;35409;48.776;9.204;2023-11-19T18:53:40;11.60;99.90
49503;DHT22;35409;48.776;9.204;2023-11-19T18:56:10;11.60;99.90
49503;DHT22;35409;48.776;9.204;2023-11-19T18:58:36;11.60;99.90
49503;DHT22;35409;48.776;9.204;2023-11-19T19:01:01;11.50;99.90
49503;DHT22;35409;48.776;9.204;2023-11-19T19:03:27;11.40;99.90
49503;DHT22;35409;48.776;9.204;2023-11-19T19:05:57;11.40;99.90
49503;DHT22;35409;48.776;9.204;2023-11-19T19:08:23;11.30;99.90
49503;DHT22;35409;48.776;9.204;2023-11-19T19:10:49;11.30;99.90
49503;DHT22;35409;48.776;9.204;2023-11-19T19:13:14;11.30;99.90
49503;DHT22;35409;48.776;9.204;2023-11-19T19:15:40;11.30;99.90
49503;DHT22;35409;48.776;9.204;2023-11-19T19:18:05;11.30;99.90
49503;DHT22;35409;48.776;9.204;2023-11-19T19:20:31;11.30;99.90
49503;DHT22;35409;48.776;9.204;2023-11-19T19:22:58;11.20;99.90
49503;DHT22;35409;48.776;9.204;2023-11-19T19:25:24;11.20;99.90
49503;DHT22;35409;48.776;9.204;2023-11-19T19:27:50;11.30;99.90
49503;DHT22;35409;48.776;9.204;2023-11-19T19:30:17;11.30;99.90
49503;DHT22;35409;48.776;9.204;2023-11-19T19:32:42;11.30;99.90
49503;DHT22;35409;48.776;9.204;2023-11-19T19:35:10;11.20;99.90
49503;DHT22;35409;48.776;9.204;2023-11-19T19:37:36;11.20;99.90
49503;DHT22;35409;48.776;9.204;2023-11-19T19:40:02;11.20;99.90
49503;DHT22;35409;48.776;9.204;2023-11-19T19:42:29;11.30;99.90
49503;DHT22;35409;48.776;9.204;2023-11-19T19:44:55;11.50;99.90
49503;DHT22;35409;48.776;9.204;2023-11-19T19:47:20;11.40;99.90
49503;DHT22;35409;48.776;9.204;2023-11-19T19:49:46;11.40;99.90
49503;DHT22;35409;48.776;9.204;2023-11-19T19:52:12;11.20;99.90
49503;DHT22;35409;48.776;9.204;2023-11-19T19:54:38;11.00;99.90
49503;DHT22;35409;48.776;9.204;2023-11-19T19:57:03;10.90;99.90
49503;DHT22;35409;48.776;9.204;2023-11-19T19:59:29;10.80;99.90
49503;DHT22;35409;48.776;9.204;2023-11-19T20:01:55;10.60;99.90
49503;DHT22;35409;48.776;9.204;2023-11-19T20:04:20;10.60;99.90
49503;DHT22;35409;48.776;9.204;2023-11-19T20:06:46;10.50;99.90
49503;DHT22;35409;48.776;9.204;2023-11-19T20:09:13;10.40;99.90
49503;DHT22;35409;48.776;9.204;2023-11-19T20:11:42;10.50;99.90
49503;DHT22;35409;48.776;9.204;2023-11-19T20:14:12;10.40;99.90
49503;DHT22;35409;48.776;9.204;2023-11-19T20:16:37;10.40;99.90
49503;DHT22;35409;48.776;9.204;2023-11-19T20:19:03;10.30;99.90
49503;DHT22;35409;48.776;9.204;2023-11-19T20:21:29;10.30;99.90
49503;DHT22;35409;48.776;9.204;2023-11-19T20:23:55;10.30;99.90
49503;DHT22;35409;48.776;9.204;2023-11-19T20:26:21;10.30;99.90
49503;DHT22;35409;48.776;9.204;2023-11-19T20:28:47;10.20;99.90
49503;DHT22;35409;48.776;9.204;2023-11-19T20:31:14;10.20;99.90
49503;DHT22;35409;48.776;9.204;2023-11-19T20:33:43;10.20;99.90
49503;DHT22;35409;48.776;9.204;2023-11-19T20:38:34;10.00;99.90
49503;DHT22;35409;48.776;9.204;2023-11-19T20:41:02;9.90;99.90
49503;DHT22;35409;48.776;9.204;2023-11-19T20:43:28;9.90;99.90
49503;DHT22;35409;48.776;9.204;2023-11-19T20:45:53;9.90;99.90
49503;DHT22;35409;48.776;9.204;2023-11-19T20:48:19;9.80;99.90
49503;DHT22;35409;48.776;9.204;2023-11-19T20:50:45;9.90;99.90
49503;DHT22;35409;48.776;9.204;2023-11-19T20:53:10;9.80;99.90
49503;DHT22;35409;48.776;9.204;2023-11-19T20:55:36;9.80;99.90
49503;DHT22;35409;48.776;9.204;2023-11-19T20:58:03;9.90;99.90
49503;DHT22;35409;48.776;9.204;2023-11-19T21:00:31;9.90;99.90
49503;DHT22;35409;48.776;9.204;2023-11-19T21:02:57;9.90;99.90
49503;DHT22;35409;48.776;9.204;2023-11-19T21:05:23;9.90;99.90
49503;DHT22;35409;48.776;9.204;2023-11-19T21:07:49;9.80;99.90
49503;DHT22;35409;48.776;9.204;2023-11-19T21:10:15;9.70;99.90
49503;DHT22;35409;48.776;9.204;2023-11-19T21:12:41;9.80;99.90
49503;DHT22;35409;48.776;9.204;2023-11-19T21:15:07;9.80;99.90
49503;DHT22;35409;48.776;9.204;2023-11-19T21:17:33;9.70;99.90
49503;DHT22;35409;48.776;9.204;2023-11-19T21:19:59;9.70;99.90
49503;DHT22;35409;48.776;9.204;2023-11-19T21:22:25;9.80;99.90
49503;DHT22;35409;48.776;9.204;2023-11-19T21:24:50;9.90;99.90
49503;DHT22;35409;48.776;9.204;2023-11-19T21:27:17;9.80;99.90
49503;DHT22;35409;48.776;9.204;2023-11-19T21:29:43;9.90;99.90
49503;DHT22;35409;48.776;9.204;2023-11-19T21:32:10;9.90;99.90
49503;DHT22;35409;48.776;9.204;2023-11-19T21:34:36;9.80;99.90
49503;DHT22;35409;48.776;9.204;2023-11-19T21:37:02;9.80;99.90
49503;DHT22;35409;48.776;9.204;2023-11-19T21:39:29;9.70;99.90
49503;DHT22;35409;48.776;9.204;2023-11-19T21:41:55;9.70;99.90
49503;DHT22;35409;48.776;9.204;2023-11-19T21:44:22;9.80;99.90
49503;DHT22;35409;48.776;9.204;2023-11-19T21:46:47;9.90;99.90
49503;DHT22;35409;48.776;9.204;2023-11-19T21:49:13;9.90;99.90
49503;DHT22;35409;48.776;9.204;2023-11-19T21:51:42;9.90;99.90
49503;DHT22;35409;48.776;9.204;2023-11-19T21:54:08;9.80;99.90
49503;DHT22;35409;48.776;9.204;2023-11-19T21:56:34;9.90;99.90
49503;DHT22;35409;48.776;9.204;2023-11-19T21:59:01;9.90;99.90
49503;DHT22;35409;48.776;9.204;2023-11-19T22:01:26;9.90;99.90
49503;DHT22;35409;48.776;9.204;2023-11-19T22:03:52;9.80;99.90
49503;DHT22;35409;48.776;9.204;2023-11-19T22:06:18;10.10;99.90
49503;DHT22;35409;48.776;9.204;2023-11-19T22:08:44;10.10;99.90
49503;DHT22;35409;48.776;9.204;2023-11-19T22:11:09;10.10;99.90
49503;DHT22;35409;48.776;9.204;2023-11-19T22:13:36;10.00;99.90
49503;DHT22;35409;48.776;9.204;2023-11-19T22:16:04;9.90;99.90
49503;DHT22;35409;48.776;9.204;2023-11-19T22:18:30;9.80;99.90
49503;DHT22;35409;48.776;9.204;2023-11-19T22:20:55;9.60;99.90
